This is the latest recevied weather packets stored in our database for station/object SQ9RHX-11. If no packets are shown the sender has not sent any weather packets the latest 10 day(s).
| Time | Temp. | Humidity | Pressure | Rain* | Wind** | Luminosity | Snow |
|---|---|---|---|---|---|---|---|
| 1788701536 | 23.89° C | 39% | 1027.8 hPa | - | - | - | - |
| 1788697936 | 20° C | 45% | 1027.6 hPa | - | - | - | - |
| 1788696137 | 20.56° C | 47% | 1027.4 hPa | - | - | - | - |
| 1788694336 | 17.78° C | 51% | 1027.5 hPa | - | - | - | - |
| 1788500118 | 18.33° C | 73% | 1016.8 hPa | - | - | - | - |
| 1788498321 | 17.78° C | 75% | 1016.7 hPa | - | - | - | - |
| 1788496523 | 17.22° C | 75% | 1016.5 hPa | - | - | - | - |
| 1788494727 | 17.22° C | 74% | 1016.8 hPa | - | - | - | - |
| 1788491134 | 16.67° C | 75% | 1017 hPa | - | - | - | - |
| 1788487539 | 17.22° C | 73% | 1017 hPa | - | - | - | - |
| 1788474961 | 17.22° C | 71% | 1017.7 hPa | - | - | - | - |
| 1788471370 | 18.33° C | 67% | 1017.6 hPa | - | - | - | - |
| 1788467777 | 19.44° C | 61% | 1017.6 hPa | - | - | - | - |
| 1788464183 | 19.44° C | 60% | 1017.5 hPa | - | - | - | - |
| 1788448022 | 25° C | 41% | 1018.2 hPa | - | - | - | - |
| 1788440834 | 25° C | 39% | 1019 hPa | - | - | - | - |
| 1788437240 | 27.78° C | 37% | 1019.4 hPa | - | - | - | - |
| 1788435443 | 26.11° C | 37% | 1019.8 hPa | - | - | - | - |
| 1788433644 | 28.89° C | 35% | 1019.9 hPa | - | - | - | - |
| 1788431845 | 26.11° C | 40% | 1020.3 hPa | - | - | - | - |
| 1788430045 | 25.56° C | 42% | 1020.5 hPa | - | - | - | - |
| 1788428246 | 28.33° C | 39% | 1020.7 hPa | - | - | - | - |
| 1788426446 | 28.33° C | 40% | 1020.7 hPa | - | - | - | - |
| 1788424645 | 27.78° C | 43% | 1021 hPa | - | - | - | - |
| 1788422846 | 26.11° C | 45% | 1021.1 hPa | - | - | - | - |
* Rain since midnight (hover to see other rain measurements)
** Current wind speed in m/s (hover to see current wind gust speed)